createdAt,value
2023-03-02T00:01:35.013Z,17.58
2023-03-02T00:04:04.522Z,20.58
2023-03-02T00:06:34.431Z,19.80
2023-03-02T00:09:03.447Z,15.90
2023-03-02T00:11:31.846Z,22.58
2023-03-02T00:13:59.672Z,22.13
2023-03-02T00:16:27.004Z,23.95
2023-03-02T00:18:54.623Z,27.17
2023-03-02T00:21:24.135Z,22.08
2023-03-02T00:23:52.810Z,20.63
2023-03-02T00:26:20.570Z,23.45
2023-03-02T00:28:48.470Z,23.25
2023-03-02T00:31:15.887Z,26.08
2023-03-02T00:33:43.591Z,23.55
2023-03-02T00:36:18.507Z,23.15
2023-03-02T00:38:46.853Z,24.23
2023-03-02T00:41:15.975Z,22.75
2023-03-02T00:43:43.763Z,26.58
2023-03-02T00:46:17.590Z,26.63
2023-03-02T00:48:46.316Z,25.98
2023-03-02T00:51:14.606Z,26.70
2023-03-02T00:53:42.861Z,24.70
2023-03-02T00:56:11.023Z,21.48
2023-03-02T00:58:42.646Z,22.25
2023-03-02T01:01:12.656Z,22.83
2023-03-02T01:03:45.224Z,19.42
2023-03-02T01:06:19.472Z,29.73
2023-03-02T01:08:47.095Z,27.15
2023-03-02T01:11:20.304Z,23.65
2023-03-02T01:13:50.254Z,18.42
2023-03-02T01:16:18.002Z,23.80
2023-03-02T01:18:45.687Z,22.00
2023-03-02T01:21:15.189Z,18.20
2023-03-02T01:23:42.797Z,21.25
2023-03-02T01:26:10.738Z,24.10
2023-03-02T01:28:38.299Z,19.80
2023-03-02T01:31:05.637Z,23.00
2023-03-02T01:33:33.202Z,19.48
2023-03-02T01:36:00.917Z,21.13
2023-03-02T01:38:29.077Z,21.58
2023-03-02T01:40:56.571Z,22.92
2023-03-02T01:43:24.576Z,25.25
2023-03-02T01:45:54.499Z,15.48
2023-03-02T01:48:34.707Z,15.20
2023-03-02T01:51:03.069Z,18.52
2023-03-02T01:53:33.137Z,16.15
2023-03-02T01:56:03.852Z,16.80
2023-03-02T01:58:36.569Z,14.93
2023-03-02T02:01:04.713Z,16.45
2023-03-02T02:03:32.472Z,14.82
2023-03-02T02:06:18.180Z,12.88
2023-03-02T02:08:47.362Z,14.48
2023-03-02T02:11:15.029Z,11.95
2023-03-02T02:13:44.316Z,12.20
2023-03-02T02:16:11.780Z,16.05
2023-03-02T02:18:41.173Z,15.35
2023-03-02T02:21:09.254Z,19.00
2023-03-02T02:23:56.102Z,13.65
2023-03-02T02:26:37.192Z,11.18
2023-03-02T02:29:12.403Z,11.70
2023-03-02T02:31:48.499Z,13.18
2023-03-02T02:34:25.387Z,11.00
2023-03-02T02:37:28.902Z,10.45
2023-03-02T02:39:58.052Z,8.77
2023-03-02T02:42:35.739Z,18.60
2023-03-02T02:45:07.244Z,9.50
2023-03-02T02:47:35.239Z,8.63
2023-03-02T02:50:02.909Z,8.90
2023-03-02T02:52:30.400Z,9.18
2023-03-02T02:54:59.316Z,15.18
2023-03-02T02:57:30.111Z,13.60
2023-03-02T03:00:01.512Z,11.70
2023-03-02T03:02:35.931Z,11.82
2023-03-02T03:07:34.625Z,7.35
2023-03-02T03:10:23.049Z,6.68
2023-03-02T03:12:51.576Z,10.63
2023-03-02T03:15:21.499Z,5.93
2023-03-02T03:17:56.193Z,9.65
2023-03-02T03:20:25.902Z,7.57
2023-03-02T03:22:54.523Z,7.82
2023-03-02T03:25:27.003Z,20.52
2023-03-02T03:27:55.601Z,10.18
2023-03-02T03:30:23.305Z,9.90
2023-03-02T03:32:50.670Z,5.07
2023-03-02T03:35:18.444Z,7.72
2023-03-02T03:37:46.014Z,7.57
2023-03-02T03:40:15.829Z,6.15
2023-03-02T03:42:44.793Z,5.15
2023-03-02T03:45:13.684Z,5.82
2023-03-02T03:47:43.171Z,6.18
2023-03-02T03:50:11.454Z,4.32
2023-03-02T03:52:39.611Z,4.65
2023-03-02T03:55:20.930Z,5.10
2023-03-02T03:57:49.891Z,4.32
2023-03-02T04:00:18.270Z,7.20
2023-03-02T04:03:01.874Z,5.95
2023-03-02T04:05:31.776Z,7.82
2023-03-02T04:08:02.315Z,5.80
2023-03-02T04:10:31.186Z,4.38
2023-03-02T04:12:58.638Z,7.55
2023-03-02T04:15:26.606Z,5.40
2023-03-02T04:17:54.176Z,4.85
2023-03-02T04:20:24.714Z,6.55
2023-03-02T04:22:55.515Z,4.65
2023-03-02T04:25:25.323Z,6.25
2023-03-02T04:27:56.434Z,4.07
2023-03-02T04:30:27.996Z,6.72
2023-03-02T04:32:57.680Z,5.75
2023-03-02T04:35:27.910Z,5.63
2023-03-02T04:37:55.489Z,7.47
2023-03-02T04:40:23.367Z,7.40
2023-03-02T04:42:50.703Z,6.57
2023-03-02T04:45:18.810Z,6.78
2023-03-02T04:47:46.366Z,6.30
2023-03-02T04:50:15.178Z,6.78
2023-03-02T04:52:42.550Z,7.47
2023-03-02T04:55:18.206Z,7.15
2023-03-02T04:57:45.630Z,7.82
2023-03-02T05:00:14.989Z,7.93
2023-03-02T05:02:43.398Z,8.52
2023-03-02T05:05:21.029Z,10.95
2023-03-02T05:07:48.301Z,13.82
2023-03-02T05:10:18.382Z,12.00
2023-03-02T05:12:57.928Z,10.98
2023-03-02T05:15:36.939Z,10.77
2023-03-02T05:18:06.273Z,12.05
2023-03-02T05:20:34.511Z,15.02
2023-03-02T05:23:05.710Z,11.48
2023-03-02T05:25:36.089Z,9.90
2023-03-02T05:28:04.284Z,11.65
2023-03-02T05:30:34.323Z,9.65
2023-03-02T05:33:01.633Z,13.45
2023-03-02T05:35:29.261Z,13.23
2023-03-02T05:37:56.555Z,12.82
2023-03-02T05:40:24.343Z,17.40
2023-03-02T05:42:51.799Z,14.23
2023-03-02T05:45:26.983Z,15.35
2023-03-02T05:47:55.110Z,14.93
2023-03-02T05:50:23.036Z,16.85
2023-03-02T05:52:50.770Z,13.55
2023-03-02T05:55:18.637Z,17.90
2023-03-02T05:57:46.201Z,13.65
2023-03-02T06:00:14.228Z,13.30
2023-03-02T06:02:42.047Z,15.10
2023-03-02T06:05:12.101Z,13.88
2023-03-02T06:07:39.696Z,14.30
2023-03-02T06:10:08.975Z,9.18
2023-03-02T06:12:36.537Z,13.35
2023-03-02T06:15:05.570Z,12.63
2023-03-02T06:17:33.449Z,12.30
2023-03-02T06:20:01.290Z,13.48
2023-03-02T06:22:28.585Z,12.05
2023-03-02T06:24:56.328Z,10.10
2023-03-02T06:27:23.589Z,9.20
2023-03-02T06:29:51.196Z,10.27
2023-03-02T06:32:18.548Z,9.32
2023-03-02T06:34:46.207Z,8.38
2023-03-02T06:37:13.502Z,11.18
2023-03-02T06:39:41.009Z,9.02
2023-03-02T06:42:08.292Z,10.02
2023-03-02T06:44:35.814Z,9.02
2023-03-02T06:47:03.049Z,7.97
2023-03-02T06:49:30.616Z,10.52
2023-03-02T06:51:57.889Z,9.80
2023-03-02T06:54:25.409Z,11.30
2023-03-02T06:56:52.690Z,9.23
2023-03-02T06:59:20.334Z,8.93
2023-03-02T07:01:49.472Z,8.13
2023-03-02T07:04:17.439Z,7.75
2023-03-02T07:06:44.771Z,8.80
2023-03-02T07:09:12.410Z,11.55
2023-03-02T07:11:40.370Z,9.45
2023-03-02T07:14:08.089Z,6.45
2023-03-02T07:16:35.393Z,7.00
2023-03-02T07:19:02.965Z,7.15
2023-03-02T07:21:30.870Z,8.35
2023-03-02T07:23:58.558Z,9.13
2023-03-02T07:26:25.766Z,7.38
2023-03-02T07:28:53.374Z,6.97
2023-03-02T07:31:20.629Z,7.40
2023-03-02T07:33:48.180Z,6.60
2023-03-02T07:36:15.380Z,6.22
2023-03-02T07:38:42.974Z,8.15
2023-03-02T07:41:11.144Z,5.35
2023-03-02T07:43:38.876Z,6.78
2023-03-02T07:46:06.870Z,6.35
2023-03-02T07:48:34.721Z,6.38
2023-03-02T07:51:04.175Z,7.78
2023-03-02T07:53:32.106Z,6.93
2023-03-02T07:56:01.433Z,6.50
2023-03-02T07:58:29.072Z,6.43
2023-03-02T08:00:56.485Z,8.57
2023-03-02T08:03:24.078Z,5.45
2023-03-02T08:05:51.275Z,7.18
2023-03-02T08:08:18.835Z,6.80
2023-03-02T08:10:46.081Z,7.63
2023-03-02T08:13:13.596Z,7.03
2023-03-02T08:15:40.810Z,6.63
2023-03-02T08:18:08.460Z,7.07
2023-03-02T08:20:35.748Z,6.40
2023-03-02T08:23:03.335Z,6.10
2023-03-02T08:25:30.578Z,6.53
2023-03-02T08:27:58.153Z,7.70
2023-03-02T08:30:25.523Z,4.65
2023-03-02T08:32:53.102Z,5.78
2023-03-02T08:35:22.292Z,5.07
2023-03-02T08:37:49.922Z,5.35
2023-03-02T08:40:17.304Z,4.88
2023-03-02T08:42:44.864Z,5.55
2023-03-02T08:45:12.803Z,6.50
2023-03-02T08:47:40.351Z,5.82
2023-03-02T08:50:08.045Z,7.50
2023-03-02T08:52:35.672Z,7.07
2023-03-02T08:55:04.103Z,5.88
2023-03-02T08:57:31.886Z,6.75
2023-03-02T08:59:59.113Z,5.63
2023-03-02T09:02:26.710Z,6.95
2023-03-02T09:04:53.980Z,4.90
2023-03-02T09:07:21.614Z,6.28
2023-03-02T09:09:48.925Z,3.60
2023-03-02T09:12:16.507Z,4.82
2023-03-02T09:14:43.799Z,4.72
2023-03-02T09:17:13.078Z,9.35
2023-03-02T09:19:44.288Z,7.50
2023-03-02T09:22:12.763Z,4.07
2023-03-02T09:24:40.007Z,4.22
2023-03-02T09:27:07.602Z,5.32
2023-03-02T09:29:34.875Z,4.53
2023-03-02T09:32:02.673Z,4.85
2023-03-02T09:34:29.953Z,5.60
2023-03-02T09:36:57.574Z,4.28
2023-03-02T09:39:24.867Z,6.80
2023-03-02T09:42:43.153Z,6.22
2023-03-02T09:45:39.857Z,5.63
2023-03-02T09:48:43.560Z,6.00
2023-03-02T09:51:31.802Z,5.70
2023-03-02T09:54:09.282Z,4.07
2023-03-02T09:56:41.911Z,6.45
2023-03-02T09:59:26.242Z,4.25
2023-03-02T10:02:04.006Z,7.00
2023-03-02T10:04:38.829Z,4.68
2023-03-02T10:07:13.830Z,6.60
2023-03-02T10:09:42.770Z,6.32
2023-03-02T10:12:19.065Z,6.55
2023-03-02T10:14:59.236Z,5.68
2023-03-02T10:17:40.456Z,6.88
2023-03-02T10:20:21.486Z,6.57
2023-03-02T10:23:13.173Z,4.38
2023-03-02T10:28:21.827Z,7.70
2023-03-02T10:31:24.896Z,7.10
2023-03-02T10:33:52.274Z,5.65
2023-03-02T10:36:22.812Z,6.28
2023-03-02T10:38:50.475Z,6.63
2023-03-02T10:41:32.855Z,7.63
2023-03-02T10:44:06.502Z,5.00
2023-03-02T10:46:46.336Z,4.10
2023-03-02T10:49:35.227Z,6.68
2023-03-02T10:52:06.264Z,8.05
2023-03-02T10:54:34.896Z,6.20
2023-03-02T10:57:05.753Z,6.13
2023-03-02T10:59:33.018Z,5.32
2023-03-02T11:02:02.881Z,9.43
2023-03-02T11:04:31.267Z,7.45
2023-03-02T11:07:19.098Z,8.77
2023-03-02T11:10:04.529Z,11.25
2023-03-02T11:12:35.402Z,8.10
2023-03-02T11:15:40.847Z,8.35
2023-03-02T11:18:37.475Z,9.05
2023-03-02T11:21:10.567Z,7.53
2023-03-02T11:23:50.041Z,7.10
2023-03-02T11:26:26.165Z,9.15
2023-03-02T11:29:24.453Z,6.70
2023-03-02T11:31:58.435Z,9.13
2023-03-02T11:34:41.194Z,7.78
2023-03-02T11:37:23.179Z,8.25
2023-03-02T11:39:56.772Z,7.20
2023-03-02T11:42:32.410Z,11.20
2023-03-02T11:45:09.673Z,6.18
2023-03-02T11:47:38.229Z,9.43
2023-03-02T11:50:07.252Z,7.95
2023-03-02T11:52:39.004Z,6.15
2023-03-02T11:55:12.577Z,7.85
2023-03-02T11:57:50.418Z,5.72
2023-03-02T12:00:28.994Z,9.98
2023-03-02T12:03:14.796Z,7.72
2023-03-02T12:05:45.405Z,6.97
2023-03-02T12:08:18.977Z,8.80
2023-03-02T12:11:03.565Z,14.35
2023-03-02T12:13:33.815Z,7.30
2023-03-02T12:16:02.172Z,10.20
2023-03-02T12:18:41.042Z,7.85
2023-03-02T12:21:20.033Z,6.75
2023-03-02T12:23:47.166Z,5.53
2023-03-02T12:26:20.524Z,6.30
2023-03-02T12:29:01.810Z,6.57
2023-03-02T12:31:47.686Z,6.47
2023-03-02T12:34:24.149Z,7.93
2023-03-02T12:36:56.999Z,5.65
2023-03-02T12:39:52.269Z,7.25
2023-03-02T12:42:47.628Z,7.10
2023-03-02T12:45:29.980Z,6.72
2023-03-02T12:48:03.404Z,7.95
2023-03-02T12:50:37.142Z,5.25
2023-03-02T12:53:07.811Z,6.72
2023-03-02T12:55:38.912Z,6.88
2023-03-02T12:58:25.667Z,8.52
2023-03-02T13:00:56.117Z,7.95
2023-03-02T13:03:24.318Z,5.73
2023-03-02T13:05:51.750Z,8.60
2023-03-02T13:08:29.293Z,7.47
2023-03-02T13:11:02.357Z,6.10
2023-03-02T13:13:32.801Z,8.25
2023-03-02T13:16:08.348Z,9.35
2023-03-02T13:18:39.505Z,7.75
2023-03-02T13:21:10.521Z,15.10
2023-03-02T13:23:49.057Z,8.63
2023-03-02T13:26:35.526Z,10.95
2023-03-02T13:29:14.803Z,8.80
2023-03-02T13:31:42.797Z,9.35
2023-03-02T13:34:21.122Z,9.98
2023-03-02T13:36:48.439Z,11.30
2023-03-02T13:39:20.907Z,10.07
2023-03-02T13:41:59.486Z,15.88
2023-03-02T13:44:33.354Z,9.93
2023-03-02T13:47:02.005Z,9.18
2023-03-02T13:49:35.382Z,11.23
2023-03-02T13:52:30.928Z,9.90
2023-03-02T13:54:58.728Z,7.78
2023-03-02T13:57:32.213Z,11.13
2023-03-02T14:00:00.544Z,8.57
2023-03-02T14:02:30.197Z,11.25
2023-03-02T14:04:58.156Z,10.18
2023-03-02T14:07:25.549Z,10.98
2023-03-02T14:09:53.173Z,7.85
2023-03-02T14:12:28.014Z,8.45
2023-03-02T14:14:59.869Z,12.52
2023-03-02T14:17:27.816Z,10.18
2023-03-02T14:19:56.084Z,9.90
2023-03-02T14:22:25.720Z,8.40
2023-03-02T14:24:53.804Z,8.18
2023-03-02T14:27:26.110Z,13.98
2023-03-02T14:29:53.688Z,7.75
2023-03-02T14:32:20.955Z,9.68
2023-03-02T14:34:48.588Z,9.48
2023-03-02T14:37:18.731Z,7.45
2023-03-02T14:39:56.884Z,6.90
2023-03-02T14:42:24.173Z,8.93
2023-03-02T14:44:52.160Z,9.90
2023-03-02T14:47:19.814Z,8.55
2023-03-02T14:49:49.429Z,11.27
2023-03-02T14:52:26.494Z,8.40
2023-03-02T14:55:00.826Z,18.60
2023-03-02T14:57:30.367Z,13.63
2023-03-02T15:00:00.039Z,11.90
2023-03-02T15:02:27.794Z,13.13
2023-03-02T15:04:57.444Z,16.23
2023-03-02T15:07:27.632Z,11.73
2023-03-02T15:09:56.961Z,11.70
2023-03-02T15:12:24.957Z,12.13
2023-03-02T15:14:52.493Z,10.02
2023-03-02T15:17:20.224Z,12.50
2023-03-02T15:19:48.399Z,10.15
2023-03-02T15:22:16.122Z,13.35
2023-03-02T15:24:43.651Z,15.52
2023-03-02T15:27:10.968Z,11.20
2023-03-02T15:29:38.458Z,17.83
2023-03-02T15:32:05.935Z,11.60
2023-03-02T15:34:33.492Z,12.75
2023-03-02T15:37:00.742Z,17.00
2023-03-02T15:39:28.423Z,12.95
2023-03-02T15:41:55.682Z,15.32
2023-03-02T15:44:24.542Z,11.82
2023-03-02T15:46:56.360Z,10.52
2023-03-02T15:49:27.300Z,13.73
2023-03-02T15:51:57.680Z,13.02
2023-03-02T15:54:26.928Z,15.60
2023-03-02T15:56:54.678Z,14.70
2023-03-02T15:59:28.500Z,12.63
2023-03-02T16:01:59.828Z,14.32
2023-03-02T16:04:29.083Z,15.07
2023-03-02T16:06:56.994Z,14.80
2023-03-02T16:09:25.706Z,16.30
2023-03-02T16:11:53.306Z,17.88
2023-03-02T16:14:20.808Z,14.70
2023-03-02T16:16:48.366Z,17.83
2023-03-02T16:19:19.180Z,19.70
2023-03-02T16:21:47.966Z,18.52
2023-03-02T16:24:17.236Z,17.63
2023-03-02T16:26:45.067Z,21.85
2023-03-02T16:29:14.058Z,18.83
2023-03-02T16:31:41.858Z,19.48
2023-03-02T16:34:11.139Z,19.77
2023-03-02T16:36:40.332Z,17.52
2023-03-02T16:39:10.134Z,21.85
2023-03-02T16:41:39.293Z,21.33
2023-03-02T16:44:07.120Z,24.30
2023-03-02T16:46:36.852Z,23.33
2023-03-02T16:49:05.123Z,21.25
2023-03-02T16:51:33.198Z,24.52
2023-03-02T16:54:00.908Z,25.30
2023-03-02T16:56:28.464Z,25.95
2023-03-02T16:58:57.751Z,24.88
2023-03-02T17:01:27.076Z,31.77
2023-03-02T17:03:54.907Z,31.23
2023-03-02T17:06:23.681Z,33.17
2023-03-02T17:08:51.599Z,37.10
2023-03-02T17:11:19.978Z,34.13
2023-03-02T17:13:47.650Z,35.67
2023-03-02T17:16:16.285Z,35.17
2023-03-02T17:18:47.032Z,30.80
2023-03-02T17:21:16.506Z,31.60
2023-03-02T17:23:44.714Z,30.98
2023-03-02T17:26:12.149Z,30.60
2023-03-02T17:28:39.838Z,31.55
2023-03-02T17:31:07.358Z,28.45
2023-03-02T17:33:35.322Z,30.92
2023-03-02T17:36:07.401Z,31.38
2023-03-02T17:38:35.355Z,32.05
2023-03-02T17:41:07.437Z,31.17
2023-03-02T17:43:37.311Z,33.85
2023-03-02T17:46:20.234Z,33.08
2023-03-02T17:48:49.565Z,32.13
2023-03-02T17:51:17.477Z,32.33
2023-03-02T17:53:47.552Z,31.20
2023-03-02T17:56:18.942Z,29.02
2023-03-02T17:58:46.711Z,35.90
2023-03-02T18:01:15.988Z,33.13
2023-03-02T18:03:45.296Z,35.15
2023-03-02T18:06:13.466Z,36.33
2023-03-02T18:08:41.185Z,34.33
2023-03-02T18:11:08.620Z,37.53
2023-03-02T18:13:36.290Z,36.33
2023-03-02T18:16:04.062Z,37.13
2023-03-02T18:18:31.722Z,34.42
2023-03-02T18:20:59.124Z,38.63
2023-03-02T18:23:26.933Z,31.98
2023-03-02T18:25:54.203Z,33.17
2023-03-02T18:28:22.066Z,34.92
2023-03-02T18:30:49.317Z,34.15
2023-03-02T18:33:16.879Z,37.15
2023-03-02T18:35:44.228Z,35.97
2023-03-02T18:38:11.804Z,32.65
2023-03-02T18:40:39.281Z,39.10
2023-03-02T18:43:06.928Z,40.72
2023-03-02T18:45:34.366Z,40.85
2023-03-02T18:48:02.491Z,38.92
2023-03-02T18:50:30.377Z,35.35
2023-03-02T18:52:58.070Z,30.13
2023-03-02T18:55:25.556Z,31.40
2023-03-02T18:57:55.898Z,32.42
2023-03-02T19:00:27.917Z,32.42
2023-03-02T19:02:56.840Z,32.30
2023-03-02T19:05:27.097Z,36.92
2023-03-02T19:07:54.960Z,34.05
2023-03-02T19:10:22.224Z,36.10
2023-03-02T19:12:50.300Z,40.67
2023-03-02T19:15:17.938Z,45.50
2023-03-02T19:17:46.096Z,41.88
2023-03-02T19:20:17.748Z,36.92
2023-03-02T19:25:12.710Z,33.60
2023-03-02T19:27:40.620Z,38.55
2023-03-02T19:30:11.950Z,37.88
2023-03-02T19:32:39.614Z,37.25
2023-03-02T19:35:07.661Z,38.33
2023-03-02T19:37:35.334Z,38.45
2023-03-02T19:40:02.583Z,43.13
2023-03-02T19:42:33.822Z,34.30
2023-03-02T19:45:03.278Z,39.13
2023-03-02T19:47:32.225Z,34.88
2023-03-02T19:49:59.468Z,42.85
2023-03-02T19:52:27.203Z,30.92
2023-03-02T19:54:54.578Z,36.45
2023-03-02T19:57:22.131Z,38.53
2023-03-02T19:59:49.424Z,35.92
2023-03-02T20:02:17.352Z,35.50
2023-03-02T20:04:46.793Z,35.55
2023-03-02T20:07:14.472Z,33.10
2023-03-02T20:09:42.515Z,38.65
2023-03-02T20:12:10.987Z,33.97
2023-03-02T20:14:40.680Z,40.15
2023-03-02T20:17:08.201Z,41.40
2023-03-02T20:19:35.510Z,41.53
2023-03-02T20:22:03.842Z,43.30
2023-03-02T20:24:31.122Z,42.00
2023-03-02T20:26:58.943Z,40.13
2023-03-02T20:29:26.955Z,36.97
2023-03-02T20:31:54.830Z,36.13
2023-03-02T20:34:22.202Z,34.05
2023-03-02T20:36:50.139Z,37.55
2023-03-02T20:39:25.487Z,37.58
2023-03-02T20:41:53.693Z,37.85
2023-03-02T20:44:22.384Z,35.00
2023-03-02T20:46:55.089Z,41.47
2023-03-02T20:49:24.373Z,39.45
2023-03-02T20:51:56.560Z,34.78
2023-03-02T20:56:57.818Z,37.60
2023-03-02T20:59:26.160Z,38.92
2023-03-02T21:01:54.018Z,41.72
2023-03-02T21:04:21.734Z,35.50
2023-03-02T21:06:50.081Z,40.08
2023-03-02T21:09:18.286Z,37.20
2023-03-02T21:11:46.923Z,39.05
2023-03-02T21:14:14.567Z,39.70
2023-03-02T21:16:43.837Z,38.00
2023-03-02T21:19:16.332Z,36.88
2023-03-02T21:21:44.229Z,34.13
2023-03-02T21:24:16.920Z,35.53
2023-03-02T21:26:45.889Z,32.42
2023-03-02T21:29:14.036Z,32.45
2023-03-02T21:31:43.903Z,34.20
2023-03-02T21:34:12.888Z,35.10
2023-03-02T21:36:40.816Z,32.83
2023-03-02T21:39:09.693Z,35.15
2023-03-02T21:41:37.510Z,36.83
2023-03-02T21:44:05.835Z,32.60
2023-03-02T21:46:35.045Z,30.88
2023-03-02T21:49:02.673Z,35.78
2023-03-02T21:51:30.329Z,34.10
2023-03-02T21:53:58.007Z,35.50
2023-03-02T21:56:26.639Z,32.58
2023-03-02T21:58:56.458Z,30.75
2023-03-02T22:01:26.497Z,32.13
2023-03-02T22:03:53.899Z,34.88
2023-03-02T22:06:24.433Z,35.75
2023-03-02T22:08:52.346Z,35.97
2023-03-02T22:11:25.852Z,31.30
2023-03-02T22:13:56.491Z,35.33
2023-03-02T22:16:27.058Z,41.40
2023-03-02T22:18:59.989Z,37.00
2023-03-02T22:21:38.998Z,35.20
2023-03-02T22:24:18.383Z,35.67
2023-03-02T22:27:19.051Z,40.45
2023-03-02T22:29:48.314Z,35.45
2023-03-02T22:32:23.183Z,39.63
2023-03-02T22:34:58.667Z,40.28
2023-03-02T22:37:33.028Z,38.38
2023-03-02T22:40:34.215Z,40.60
2023-03-02T22:43:24.895Z,43.23
2023-03-02T22:45:53.735Z,40.28
2023-03-02T22:48:23.141Z,39.35
2023-03-02T22:50:50.650Z,46.97
2023-03-02T22:53:27.213Z,38.30
2023-03-02T22:55:57.702Z,36.17
2023-03-02T22:58:50.567Z,36.60
2023-03-02T23:01:24.359Z,45.13
2023-03-02T23:04:15.372Z,38.63
2023-03-02T23:06:48.680Z,38.15
2023-03-02T23:09:23.413Z,38.80
2023-03-02T23:11:51.724Z,36.42
2023-03-02T23:14:23.620Z,38.05
2023-03-02T23:16:54.620Z,39.15
2023-03-02T23:19:22.249Z,37.63
2023-03-02T23:21:49.862Z,38.63
2023-03-02T23:24:20.816Z,41.95
2023-03-02T23:26:52.503Z,40.22
2023-03-02T23:31:48.267Z,44.05
2023-03-02T23:34:16.342Z,40.22
2023-03-02T23:36:43.806Z,44.97
2023-03-02T23:39:11.789Z,47.28
2023-03-02T23:41:39.321Z,48.15
2023-03-02T23:44:07.568Z,47.80
2023-03-02T23:46:35.307Z,49.70
2023-03-02T23:49:02.932Z,44.75
2023-03-02T23:51:30.183Z,42.95
2023-03-02T23:53:57.762Z,40.22
2023-03-02T23:56:25.213Z,38.55
2023-03-02T23:58:52.757Z,37.47
